createdAt,value
2018-04-12T00:01:57.381Z,9.13
2018-04-12T00:04:24.862Z,7.20
2018-04-12T00:06:52.362Z,9.13
2018-04-12T00:09:20.617Z,8.43
2018-04-12T00:11:48.119Z,8.80
2018-04-12T00:14:15.600Z,10.13
2018-04-12T00:16:43.881Z,9.57
2018-04-12T00:19:12.130Z,10.60
2018-04-12T00:21:39.626Z,9.60
2018-04-12T00:24:07.134Z,9.47
2018-04-12T00:26:34.613Z,9.73
2018-04-12T00:29:02.117Z,11.73
2018-04-12T00:31:29.613Z,10.73
2018-04-12T00:33:57.894Z,11.70
2018-04-12T00:36:25.374Z,11.50
2018-04-12T00:38:53.704Z,11.40
2018-04-12T00:41:21.160Z,11.60
2018-04-12T00:43:48.679Z,10.60
2018-04-12T00:46:16.170Z,12.50
2018-04-12T00:48:43.682Z,13.57
2018-04-12T00:51:11.186Z,12.17
2018-04-12T00:53:50.485Z,10.93
2018-04-12T00:56:17.975Z,12.30
2018-04-12T00:58:45.487Z,18.67
2018-04-12T01:01:12.979Z,12.87
2018-04-12T01:03:40.495Z,13.40
2018-04-12T01:06:07.997Z,13.50
2018-04-12T01:08:35.506Z,13.73
2018-04-12T01:11:03.765Z,14.10
2018-04-12T01:13:31.290Z,15.20
2018-04-12T01:15:58.780Z,17.37
2018-04-12T01:18:26.266Z,16.97
2018-04-12T01:20:53.778Z,16.37
2018-04-12T01:23:22.042Z,14.50
2018-04-12T01:25:49.549Z,16.93
2018-04-12T01:28:17.041Z,21.17
2018-04-12T01:30:44.554Z,16.43
2018-04-12T01:33:18.789Z,18.80
2018-04-12T01:35:47.061Z,18.23
2018-04-12T01:38:14.543Z,18.03
2018-04-12T01:40:42.822Z,17.47
2018-04-12T01:43:10.323Z,18.00
2018-04-12T01:45:38.597Z,17.37
2018-04-12T01:48:06.845Z,18.73
2018-04-12T01:50:34.352Z,18.03
2018-04-12T01:53:02.603Z,19.93
2018-04-12T01:55:30.109Z,17.90
2018-04-12T01:57:58.361Z,21.10
2018-04-12T02:00:25.874Z,22.03
2018-04-12T02:02:54.179Z,23.23
2018-04-12T02:05:21.694Z,22.13
2018-04-12T02:07:49.186Z,21.43
2018-04-12T02:10:16.702Z,23.93
2018-04-12T02:12:44.183Z,24.67
2018-04-12T02:15:11.694Z,26.50
2018-04-12T02:17:39.970Z,28.00
2018-04-12T02:20:07.492Z,31.43
2018-04-12T02:22:34.982Z,25.00
2018-04-12T02:25:02.471Z,30.10
2018-04-12T02:27:29.972Z,27.87
2018-04-12T02:29:57.463Z,31.40
2018-04-12T02:32:24.979Z,31.97
2018-04-12T02:34:52.479Z,30.40
2018-04-12T02:37:19.986Z,37.73
2018-04-12T02:39:47.472Z,33.70
2018-04-12T02:42:14.975Z,35.80
2018-04-12T02:44:42.464Z,35.90
2018-04-12T02:47:10.754Z,32.80
2018-04-12T02:49:39.010Z,38.37
2018-04-12T02:52:06.518Z,42.30
2018-04-12T02:54:34.776Z,36.70
2018-04-12T02:57:02.281Z,37.67
2018-04-12T02:59:30.539Z,38.17
2018-04-12T03:01:58.051Z,41.33
2018-04-12T03:04:25.585Z,38.70
2018-04-12T03:06:53.066Z,41.30
2018-04-12T03:09:20.554Z,38.93
2018-04-12T03:11:48.823Z,43.90
2018-04-12T03:14:16.310Z,40.80
2018-04-12T03:16:44.595Z,42.60
2018-04-12T03:19:12.873Z,43.80
2018-04-12T03:21:40.358Z,42.43
2018-04-12T03:24:08.635Z,44.23
2018-04-12T03:26:36.124Z,44.53
2018-04-12T03:29:03.638Z,45.43
2018-04-12T03:31:31.128Z,46.20
2018-04-12T03:33:58.642Z,42.77
2018-04-12T03:36:26.147Z,41.90
2018-04-12T03:38:53.657Z,45.67
2018-04-12T03:41:21.910Z,46.27
2018-04-12T03:43:49.466Z,44.63
2018-04-12T03:46:16.958Z,45.17
2018-04-12T03:48:44.532Z,40.43
2018-04-12T03:51:11.962Z,43.77
2018-04-12T03:53:39.476Z,44.70
2018-04-12T03:56:06.962Z,45.20
2018-04-12T03:58:34.445Z,43.13
2018-04-12T04:01:02.718Z,46.63
2018-04-12T04:03:30.201Z,47.67
2018-04-12T04:05:58.478Z,46.47
2018-04-12T04:08:25.973Z,44.00
2018-04-12T04:10:53.492Z,44.33
2018-04-12T04:13:20.994Z,47.63
2018-04-12T04:16:01.063Z,49.90
2018-04-12T04:18:41.088Z,44.80
2018-04-12T04:21:13.166Z,45.80
2018-04-12T04:23:40.657Z,47.53
2018-04-12T04:26:08.162Z,45.50
2018-04-12T04:28:35.646Z,44.50
2018-04-12T04:31:03.153Z,51.10
2018-04-12T04:33:30.649Z,46.10
2018-04-12T04:35:58.926Z,45.43
2018-04-12T04:38:26.417Z,53.33
2018-04-12T04:40:54.695Z,51.43
2018-04-12T04:43:22.944Z,42.93
2018-04-12T04:45:50.462Z,46.37
2018-04-12T04:48:18.770Z,47.30
2018-04-12T04:50:46.242Z,47.47
2018-04-12T04:53:13.730Z,50.13
2018-04-12T04:55:41.239Z,45.70
2018-04-12T04:58:08.728Z,47.63
2018-04-12T05:00:36.995Z,51.00
2018-04-12T05:03:04.493Z,51.27
2018-04-12T05:05:32.790Z,49.20
2018-04-12T05:08:00.272Z,46.13
2018-04-12T05:10:27.761Z,45.00
2018-04-12T05:12:55.265Z,49.40
2018-04-12T05:15:22.755Z,46.47
2018-04-12T05:17:51.026Z,44.87
2018-04-12T05:20:18.524Z,52.40
2018-04-12T05:22:46.807Z,49.27
2018-04-12T05:25:15.063Z,58.87
2018-04-12T05:27:42.574Z,50.70
2018-04-12T05:30:10.066Z,45.70
2018-04-12T05:32:37.578Z,59.43
2018-04-12T05:35:05.067Z,51.37
2018-04-12T05:37:33.337Z,53.90
2018-04-12T05:40:00.827Z,46.50
2018-04-12T05:42:29.098Z,53.67
2018-04-12T05:44:56.585Z,48.00
2018-04-12T05:47:24.855Z,49.20
2018-04-12T05:49:52.337Z,52.50
2018-04-12T05:52:19.842Z,53.23
2018-04-12T05:54:47.338Z,49.73
2018-04-12T05:57:14.845Z,49.40
2018-04-12T05:59:43.108Z,48.00
2018-04-12T06:02:10.605Z,51.10
2018-04-12T06:04:38.861Z,50.17
2018-04-12T06:07:06.378Z,51.87
2018-04-12T06:09:34.640Z,51.80
2018-04-12T06:12:02.151Z,52.60
2018-04-12T06:14:29.637Z,46.47
2018-04-12T06:16:57.194Z,44.97
2018-04-12T06:19:24.686Z,48.93
2018-04-12T06:21:52.175Z,46.33
2018-04-12T06:24:19.683Z,47.47
2018-04-12T06:26:47.939Z,45.73
2018-04-12T06:29:15.471Z,50.27
2018-04-12T06:31:43.067Z,44.67
2018-04-12T06:34:10.575Z,50.97
2018-04-12T06:36:38.833Z,49.13
2018-04-12T06:39:06.365Z,46.30
2018-04-12T06:41:33.852Z,50.20
2018-04-12T06:44:01.358Z,51.57
2018-04-12T06:46:28.858Z,43.00
2018-04-12T06:48:57.135Z,45.53
2018-04-12T06:51:25.390Z,44.67
2018-04-12T06:53:52.898Z,44.93
2018-04-12T06:56:21.152Z,42.37
2018-04-12T06:58:48.663Z,43.20
2018-04-12T07:01:16.168Z,44.67
2018-04-12T07:03:43.682Z,36.93
2018-04-12T07:06:11.167Z,41.67
2018-04-12T07:08:39.650Z,39.53
2018-04-12T07:11:07.139Z,38.53
2018-04-12T07:13:35.395Z,45.80
2018-04-12T07:16:02.906Z,40.63
2018-04-12T07:18:30.389Z,38.30
2018-04-12T07:20:57.902Z,38.87
2018-04-12T07:23:25.386Z,37.23
2018-04-12T07:25:52.894Z,41.47
2018-04-12T07:28:20.385Z,35.43
2018-04-12T07:30:47.895Z,38.33
2018-04-12T07:33:15.381Z,35.97
2018-04-12T07:35:43.649Z,40.50
2018-04-12T07:38:11.142Z,35.80
2018-04-12T07:40:39.417Z,31.40
2018-04-12T07:43:06.905Z,34.00
2018-04-12T07:45:35.173Z,29.00
2018-04-12T07:48:02.665Z,20.60
2018-04-12T07:50:30.173Z,20.43
2018-04-12T07:52:57.663Z,23.40
2018-04-12T07:55:25.210Z,16.93
2018-04-12T07:57:53.447Z,17.57
2018-04-12T08:00:21.721Z,21.23
2018-04-12T08:02:49.210Z,13.23
2018-04-12T08:05:17.489Z,16.60
2018-04-12T08:07:44.987Z,12.73
2018-04-12T08:10:12.478Z,25.93
2018-04-12T08:12:39.978Z,16.40
2018-04-12T08:15:07.462Z,22.83
2018-04-12T08:17:34.980Z,18.83
2018-04-12T08:20:02.463Z,15.30
2018-04-12T08:22:30.002Z,11.80
2018-04-12T08:24:58.249Z,11.97
2018-04-12T08:27:25.751Z,10.73
2018-04-12T08:29:53.998Z,14.87
2018-04-12T08:32:21.505Z,20.70
2018-04-12T08:34:49.749Z,10.03
2018-04-12T08:37:17.258Z,9.70
2018-04-12T08:39:44.758Z,11.53
2018-04-12T08:42:12.274Z,12.50
2018-04-12T08:44:39.755Z,10.60
2018-04-12T08:47:07.266Z,8.43
2018-04-12T08:49:34.753Z,6.50
2018-04-12T08:52:02.301Z,9.23
2018-04-12T08:54:29.742Z,9.07
2018-04-12T08:56:57.251Z,6.63
2018-04-12T08:59:24.726Z,12.50
2018-04-12T09:01:52.234Z,7.90
2018-04-12T09:04:20.064Z,9.10
2018-04-12T09:06:47.573Z,6.57
2018-04-12T09:09:15.066Z,6.13
2018-04-12T09:11:42.604Z,8.70
2018-04-12T09:14:10.087Z,8.43
2018-04-12T09:16:37.602Z,104.57
2018-04-12T09:19:05.086Z,8.50
2018-04-12T09:21:32.590Z,5.73
2018-04-12T09:24:00.069Z,8.67
2018-04-12T09:26:27.545Z,4.93
2018-04-12T09:28:55.046Z,5.83
2018-04-12T09:31:23.306Z,10.40
2018-04-12T09:33:50.817Z,9.53
2018-04-12T09:36:19.063Z,15.50
2018-04-12T09:38:46.562Z,7.87
2018-04-12T09:41:14.811Z,6.63
2018-04-12T09:43:42.322Z,6.53
2018-04-12T09:46:10.571Z,6.63
2018-04-12T09:48:38.082Z,9.93
2018-04-12T09:51:06.334Z,8.27
2018-04-12T09:53:33.835Z,9.90
2018-04-12T09:56:02.089Z,11.33
2018-04-12T09:58:29.602Z,9.77
2018-04-12T10:00:57.090Z,10.77
2018-04-12T10:03:24.595Z,7.60
2018-04-12T10:05:57.799Z,5.80
2018-04-12T10:08:27.792Z,9.50
2018-04-12T10:10:55.273Z,7.70
2018-04-12T10:13:22.783Z,10.13
2018-04-12T10:15:50.269Z,6.30
2018-04-12T10:18:17.761Z,8.10
2018-04-12T10:20:45.250Z,7.70
2018-04-12T10:23:12.750Z,8.40
2018-04-12T10:25:40.244Z,6.20
2018-04-12T10:28:07.741Z,6.30
2018-04-12T10:30:35.217Z,5.47
2018-04-12T10:33:02.738Z,9.27
2018-04-12T10:35:30.209Z,5.30
2018-04-12T10:37:57.690Z,14.53
2018-04-12T10:40:25.203Z,3.57
2018-04-12T10:42:52.682Z,8.30
2018-04-12T10:45:20.188Z,8.40
2018-04-12T10:47:47.666Z,6.37
2018-04-12T10:50:15.175Z,7.43
2018-04-12T10:52:42.659Z,8.43
2018-04-12T10:55:10.926Z,5.83
2018-04-12T10:57:39.174Z,9.40
2018-04-12T11:00:06.698Z,8.50
2018-04-12T11:02:34.185Z,7.87
2018-04-12T11:05:01.730Z,7.43
2018-04-12T11:07:29.975Z,7.50
2018-04-12T11:09:57.482Z,10.33
2018-04-12T11:12:25.734Z,7.10
2018-04-12T11:14:53.234Z,8.90
2018-04-12T11:17:21.469Z,8.40
2018-04-12T11:19:48.969Z,9.10
2018-04-12T11:22:16.454Z,13.37
2018-04-12T11:24:44.713Z,13.10
2018-04-12T11:27:12.244Z,13.67
2018-04-12T11:29:39.715Z,13.83
2018-04-12T11:32:07.219Z,20.83
2018-04-12T11:34:34.712Z,13.47
2018-04-12T11:37:02.232Z,12.20
2018-04-12T11:39:29.730Z,14.50
2018-04-12T11:41:57.237Z,16.00
2018-04-12T11:44:25.506Z,13.30
2018-04-12T11:46:53.055Z,13.13
2018-04-12T11:49:20.510Z,13.00
2018-04-12T11:51:48.017Z,11.50
2018-04-12T11:54:15.499Z,13.10
2018-04-12T11:56:43.797Z,17.10
2018-04-12T11:59:11.261Z,13.47
2018-04-12T12:01:39.601Z,11.27
2018-04-12T12:04:07.810Z,16.30
2018-04-12T12:06:35.323Z,13.57
2018-04-12T12:09:02.826Z,14.67
2018-04-12T12:11:30.330Z,12.00
2018-04-12T12:13:57.825Z,15.50
2018-04-12T12:16:26.115Z,13.47
2018-04-12T12:18:53.601Z,17.90
2018-04-12T12:21:21.082Z,15.13
2018-04-12T12:23:49.417Z,18.50
2018-04-12T12:26:16.854Z,15.20
2018-04-12T12:28:44.361Z,13.27
2018-04-12T12:31:11.856Z,16.47
2018-04-12T12:33:40.136Z,12.00
2018-04-12T12:36:08.395Z,16.40
2018-04-12T12:38:35.898Z,12.97
2018-04-12T12:41:04.153Z,15.10
2018-04-12T12:43:31.667Z,13.40
2018-04-12T12:45:59.158Z,13.57
2018-04-12T12:48:27.441Z,16.27
2018-04-12T12:50:54.925Z,12.77
2018-04-12T12:53:22.430Z,12.10
2018-04-12T12:55:49.925Z,11.90
2018-04-12T12:58:18.212Z,16.50
2018-04-12T13:00:46.466Z,14.10
2018-04-12T13:03:13.974Z,14.00
2018-04-12T13:05:42.236Z,11.87
2018-04-12T13:08:09.754Z,13.67
2018-04-12T13:10:37.237Z,23.47
2018-04-12T13:13:04.727Z,13.87
2018-04-12T13:15:32.242Z,14.17
2018-04-12T13:18:00.497Z,16.40
2018-04-12T13:20:28.008Z,14.70
2018-04-12T13:22:55.502Z,17.77
2018-04-12T13:25:23.008Z,12.80
2018-04-12T13:27:50.493Z,17.67
2018-04-12T13:30:18.783Z,17.30
2018-04-12T13:32:47.032Z,11.63
2018-04-12T13:35:14.546Z,14.00
2018-04-12T13:37:42.798Z,13.43
2018-04-12T13:40:10.303Z,15.77
2018-04-12T13:42:38.567Z,11.57
2018-04-12T13:45:06.070Z,8.50
2018-04-12T13:47:34.322Z,8.00
2018-04-12T13:50:01.822Z,8.77
2018-04-12T13:52:30.071Z,10.97
2018-04-12T13:54:57.598Z,4.83
2018-04-12T13:57:25.833Z,16.70
2018-04-12T13:59:53.325Z,9.23
2018-04-12T14:02:21.601Z,5.30
2018-04-12T14:04:49.077Z,5.53
2018-04-12T14:07:16.594Z,7.70
2018-04-12T14:09:44.077Z,5.47
2018-04-12T14:12:11.585Z,5.53
2018-04-12T14:14:41.054Z,6.30
2018-04-12T14:17:08.564Z,4.77
2018-04-12T14:19:36.045Z,5.13
2018-04-12T14:22:03.539Z,5.73
2018-04-12T14:24:31.025Z,7.73
2018-04-12T14:26:58.529Z,3.80
2018-04-12T14:29:26.023Z,12.70
2018-04-12T14:31:54.316Z,11.00
2018-04-12T14:34:22.529Z,7.90
2018-04-12T14:36:50.038Z,10.30
2018-04-12T14:39:17.598Z,5.03
2018-04-12T14:41:45.153Z,7.67
2018-04-12T14:44:12.601Z,9.20
2018-04-12T14:46:40.864Z,15.40
2018-04-12T14:49:08.346Z,11.47
2018-04-12T14:51:35.822Z,8.17
2018-04-12T14:54:03.320Z,9.97
2018-04-12T14:56:30.810Z,9.03
2018-04-12T14:58:58.315Z,8.43
2018-04-12T15:01:25.795Z,11.20
2018-04-12T15:03:53.295Z,9.70
2018-04-12T15:06:20.842Z,10.20
2018-04-12T15:08:48.307Z,16.17
2018-04-12T15:11:15.783Z,14.20
2018-04-12T15:13:43.285Z,9.40
2018-04-12T15:16:10.774Z,11.47
2018-04-12T15:18:38.279Z,9.20
2018-04-12T15:21:05.759Z,10.77
2018-04-12T15:23:33.266Z,11.93
2018-04-12T15:26:00.752Z,9.53
2018-04-12T15:28:28.255Z,11.00
2018-04-12T15:30:55.749Z,17.50
2018-04-12T15:33:23.263Z,11.33
2018-04-12T15:35:50.743Z,8.43
2018-04-12T15:38:18.230Z,8.80
2018-04-12T15:40:45.730Z,8.27
2018-04-12T15:43:13.983Z,8.00
2018-04-12T15:45:41.496Z,8.30
2018-04-12T15:48:08.982Z,9.70
2018-04-12T15:50:36.494Z,11.03
2018-04-12T15:53:03.978Z,11.53
2018-04-12T15:55:31.486Z,9.00
2018-04-12T15:57:58.973Z,7.97
2018-04-12T16:00:26.521Z,10.10
2018-04-12T16:02:53.977Z,8.23
2018-04-12T16:05:22.256Z,15.20
2018-04-12T16:07:49.734Z,9.57
2018-04-12T16:10:18.027Z,13.77
2018-04-12T16:12:45.525Z,8.97
2018-04-12T16:15:13.075Z,10.47
2018-04-12T16:17:41.314Z,7.63
2018-04-12T16:20:08.810Z,9.90
2018-04-12T16:22:36.298Z,7.20
2018-04-12T16:25:04.568Z,9.73
2018-04-12T16:27:33.578Z,10.70
2018-04-12T16:30:01.365Z,9.97
2018-04-12T16:32:29.610Z,7.80
2018-04-12T16:34:57.089Z,10.23
2018-04-12T16:37:24.596Z,10.20
2018-04-12T16:39:52.845Z,10.07
2018-04-12T16:42:20.351Z,7.40
2018-04-12T16:44:47.844Z,8.00
2018-04-12T16:47:15.353Z,7.57
2018-04-12T16:49:42.841Z,9.33
2018-04-12T16:52:10.341Z,9.67
2018-04-12T16:54:38.595Z,7.90
2018-04-12T16:57:06.107Z,11.50
2018-04-12T16:59:33.594Z,10.33
2018-04-12T17:02:01.093Z,13.17
2018-04-12T17:04:28.572Z,11.60
2018-04-12T17:06:56.088Z,9.03
2018-04-12T17:09:23.590Z,13.20
2018-04-12T17:11:51.090Z,7.80
2018-04-12T17:14:18.598Z,7.67
2018-04-12T17:16:46.123Z,8.43
2018-04-12T17:19:13.672Z,9.07
2018-04-12T17:21:41.133Z,7.10
2018-04-12T17:24:08.627Z,15.63
2018-04-12T17:26:36.147Z,12.10
2018-04-12T17:29:03.662Z,11.70
2018-04-12T17:31:31.162Z,9.10
2018-04-12T17:33:58.686Z,9.17
2018-04-12T17:36:26.202Z,12.20
2018-04-12T17:38:54.539Z,9.60
2018-04-12T17:41:22.043Z,10.30
2018-04-12T17:43:49.557Z,10.20
2018-04-12T17:46:17.812Z,10.13
2018-04-12T17:48:45.335Z,9.70
2018-04-12T17:51:13.129Z,8.93
2018-04-12T17:53:40.666Z,11.60
2018-04-12T17:56:08.174Z,8.87
2018-04-12T17:58:35.687Z,8.07
2018-04-12T18:01:03.947Z,9.03
2018-04-12T18:03:31.470Z,8.77
2018-04-12T18:05:59.014Z,7.27
2018-04-12T18:08:26.531Z,10.67
2018-04-12T18:10:54.022Z,10.27
2018-04-12T18:13:21.537Z,11.57
2018-04-12T18:15:49.029Z,12.33
2018-04-12T18:18:16.543Z,13.07
2018-04-12T18:20:44.058Z,17.70
2018-04-12T18:23:11.539Z,11.00
2018-04-12T18:25:39.058Z,12.20
2018-04-12T18:28:06.542Z,12.90
2018-04-12T18:30:34.049Z,11.67
2018-04-12T18:33:01.541Z,11.40
2018-04-12T18:35:29.126Z,13.70
2018-04-12T18:37:56.614Z,10.10
2018-04-12T18:40:24.126Z,11.37
2018-04-12T18:42:51.662Z,15.07
2018-04-12T18:45:19.175Z,10.60
2018-04-12T18:48:12.026Z,15.73
2018-04-12T18:50:39.551Z,10.70
2018-04-12T18:53:07.046Z,8.87
2018-04-12T18:55:35.327Z,12.60
2018-04-12T18:58:02.839Z,13.50
2018-04-12T19:00:30.361Z,13.53
2018-04-12T19:02:57.857Z,16.37
2018-04-12T19:05:26.145Z,17.30
2018-04-12T19:07:53.647Z,17.33
2018-04-12T19:10:21.154Z,17.17
2018-04-12T19:12:48.651Z,17.27
2018-04-12T19:15:16.173Z,16.50
2018-04-12T19:17:43.670Z,9.73
2018-04-12T19:20:11.188Z,10.97
2018-04-12T19:22:38.706Z,10.07
2018-04-12T19:25:06.230Z,9.07
2018-04-12T19:27:35.698Z,17.83
2018-04-12T19:30:03.210Z,9.23
2018-04-12T19:32:31.497Z,13.13
2018-04-12T19:34:59.793Z,8.53
2018-04-12T19:37:27.316Z,11.83
2018-04-12T19:39:54.814Z,10.83
2018-04-12T19:42:22.326Z,71.33
2018-04-12T19:44:49.826Z,32.97
2018-04-12T19:47:17.350Z,13.73
2018-04-12T19:49:44.859Z,14.13
2018-04-12T19:52:12.378Z,15.00
2018-04-12T19:54:40.626Z,9.60
2018-04-12T19:57:08.134Z,11.40
2018-04-12T19:59:36.377Z,12.30
2018-04-12T20:02:03.893Z,18.17
2018-04-12T20:04:32.165Z,15.90
2018-04-12T20:06:59.693Z,13.77
2018-04-12T20:09:27.187Z,13.10
2018-04-12T20:11:54.781Z,15.77
2018-04-12T20:14:22.520Z,12.13
2018-04-12T20:16:50.033Z,14.17
2018-04-12T20:19:17.530Z,13.30
2018-04-12T20:21:45.028Z,11.67
2018-04-12T20:24:12.537Z,14.07
2018-04-12T20:26:40.016Z,9.83
2018-04-12T20:29:08.307Z,58.33
2018-04-12T20:31:36.578Z,32.73
2018-04-12T20:34:04.162Z,17.33
2018-04-12T20:36:31.656Z,11.70
2018-04-12T20:38:59.174Z,10.77
2018-04-12T20:41:26.667Z,10.67
2018-04-12T20:43:54.186Z,10.03
2018-04-12T20:46:21.670Z,9.67
2018-04-12T20:48:49.183Z,13.30
2018-04-12T20:51:16.673Z,10.70
2018-04-12T20:53:44.177Z,9.90
2018-04-12T20:56:11.675Z,13.20
2018-04-12T20:58:39.182Z,9.23
2018-04-12T21:01:07.429Z,10.57
2018-04-12T21:03:34.952Z,11.90
2018-04-12T21:06:02.454Z,12.63
2018-04-12T21:08:29.973Z,11.13
2018-04-12T21:10:58.237Z,11.97
2018-04-12T21:13:25.739Z,10.67
2018-04-12T21:15:54.029Z,11.07
2018-04-12T21:18:21.530Z,15.43
2018-04-12T21:20:49.048Z,15.60
2018-04-12T21:23:16.546Z,15.17
2018-04-12T21:25:44.074Z,17.07
2018-04-12T21:28:11.580Z,16.33
2018-04-12T21:30:39.110Z,15.33
2018-04-12T21:33:06.608Z,16.63
2018-04-12T21:35:34.885Z,16.30
2018-04-12T21:38:02.384Z,16.10
2018-04-12T21:40:29.911Z,15.87
2018-04-12T21:42:57.415Z,15.10
2018-04-12T21:45:25.694Z,12.93
2018-04-12T21:47:53.184Z,17.20
2018-04-12T21:50:20.947Z,11.63
2018-04-12T21:52:48.444Z,18.20
2018-04-12T21:55:15.947Z,21.63
2018-04-12T21:57:43.468Z,11.60
2018-04-12T22:00:11.743Z,165.70
2018-04-12T22:02:40.042Z,87.60
2018-04-12T22:05:08.305Z,26.00
2018-04-12T22:07:35.810Z,15.40
2018-04-12T22:10:03.342Z,14.43
2018-04-12T22:12:31.634Z,15.13
2018-04-12T22:15:07.558Z,12.20
2018-04-12T22:17:35.075Z,12.47
2018-04-12T22:20:02.561Z,13.30
2018-04-12T22:22:30.103Z,15.93
2018-04-12T22:24:57.596Z,12.40
2018-04-12T22:27:25.869Z,11.13
2018-04-12T22:29:53.358Z,15.73
2018-04-12T22:32:21.647Z,12.10
2018-04-12T22:34:49.897Z,11.73
2018-04-12T22:37:17.406Z,12.03
2018-04-12T22:39:44.894Z,17.10
2018-04-12T22:42:12.419Z,14.97
2018-04-12T22:44:39.930Z,13.53
2018-04-12T22:47:07.470Z,19.37
2018-04-12T22:49:34.953Z,13.00
2018-04-12T22:52:02.487Z,22.43
2018-04-12T22:54:29.979Z,14.33
2018-04-12T22:56:57.480Z,13.67
2018-04-12T22:59:25.006Z,15.93
2018-04-12T23:01:52.508Z,12.97
2018-04-12T23:04:20.023Z,14.97
2018-04-12T23:06:47.518Z,14.00
2018-04-12T23:09:15.032Z,14.80
2018-04-12T23:11:43.294Z,12.33
2018-04-12T23:14:10.839Z,13.00
2018-04-12T23:16:38.347Z,17.13
2018-04-12T23:19:05.870Z,16.83
2018-04-12T23:21:33.356Z,14.87
2018-04-12T23:24:00.871Z,11.03
2018-04-12T23:26:28.390Z,12.80
2018-04-12T23:28:55.910Z,12.50
2018-04-12T23:31:24.187Z,12.33
2018-04-12T23:33:51.697Z,13.07
2018-04-12T23:36:19.194Z,15.27
2018-04-12T23:38:46.682Z,12.13
2018-04-12T23:41:14.192Z,11.10
2018-04-12T23:43:41.775Z,11.17
2018-04-12T23:46:09.289Z,16.30
2018-04-12T23:48:36.786Z,10.47
2018-04-12T23:51:06.278Z,11.90
2018-04-12T23:53:33.762Z,10.90
2018-04-12T23:56:01.328Z,14.20
2018-04-12T23:58:28.782Z,13.00
